createdAt,value
2019-03-23T00:01:19.570Z,72.74
2019-03-23T00:03:49.618Z,72.75
2019-03-23T00:06:30.212Z,72.38
2019-03-23T00:08:50.039Z,72.18
2019-03-23T00:11:20.057Z,71.73
2019-03-23T00:13:50.104Z,71.32
2019-03-23T00:16:20.123Z,71.06
2019-03-23T00:18:50.165Z,71.05
2019-03-23T00:21:20.519Z,71.04
2019-03-23T00:23:50.573Z,71.20
2019-03-23T00:26:20.958Z,71.28
2019-03-23T00:28:51.012Z,71.00
2019-03-23T00:31:21.398Z,71.17
2019-03-23T00:33:51.741Z,70.75
2019-03-23T00:36:21.775Z,71.08
2019-03-23T00:38:51.809Z,70.93
2019-03-23T00:41:21.863Z,70.95
2019-03-23T00:43:51.896Z,71.00
2019-03-23T00:46:21.921Z,71.32
2019-03-23T00:48:51.975Z,71.48
2019-03-23T00:51:22.010Z,71.46
2019-03-23T00:53:52.045Z,72.55
2019-03-23T00:56:22.371Z,73.35
2019-03-23T00:58:52.408Z,74.32
2019-03-23T01:01:22.441Z,75.31
2019-03-23T01:03:52.870Z,76.52
2019-03-23T01:06:22.899Z,76.56
2019-03-23T01:08:52.951Z,77.13
2019-03-23T01:11:22.989Z,77.25
2019-03-23T01:13:53.039Z,77.08
2019-03-23T01:16:23.081Z,77.75
2019-03-23T01:18:53.136Z,77.34
2019-03-23T01:21:23.186Z,77.61
2019-03-23T01:23:53.507Z,77.96
2019-03-23T01:26:23.528Z,77.92
2019-03-23T01:28:53.589Z,77.92
2019-03-23T01:31:23.927Z,78.45
2019-03-23T01:33:54.011Z,78.33
2019-03-23T01:36:24.040Z,79.04
2019-03-23T01:38:54.402Z,79.09
2019-03-23T01:41:24.547Z,78.84
2019-03-23T01:43:54.917Z,78.49
2019-03-23T01:46:24.965Z,78.76
2019-03-23T01:48:55.019Z,78.58
2019-03-23T01:51:25.373Z,78.89
2019-03-23T01:53:55.411Z,79.40
2019-03-23T01:56:25.476Z,80.91
2019-03-23T01:58:55.511Z,81.51
2019-03-23T02:01:25.555Z,81.76
2019-03-23T02:03:55.617Z,81.98
2019-03-23T02:06:25.666Z,81.40
2019-03-23T02:08:55.689Z,81.34
2019-03-23T02:11:25.732Z,81.23
2019-03-23T02:13:55.760Z,80.99
2019-03-23T02:16:25.822Z,80.98
2019-03-23T02:18:55.852Z,81.07
2019-03-23T02:21:25.894Z,81.14
2019-03-23T02:23:56.181Z,80.74
2019-03-23T02:26:26.266Z,80.56
2019-03-23T02:28:56.312Z,80.47
2019-03-23T02:31:26.355Z,80.50
2019-03-23T02:33:56.430Z,80.34
2019-03-23T02:36:26.459Z,80.59
2019-03-23T02:38:56.488Z,80.65
2019-03-23T02:41:26.532Z,80.60
2019-03-23T02:43:56.933Z,80.14
2019-03-23T02:46:26.995Z,80.14
2019-03-23T02:48:57.032Z,80.31
2019-03-23T02:51:27.102Z,80.60
2019-03-23T02:53:57.140Z,80.37
2019-03-23T02:56:27.175Z,80.19
2019-03-23T02:58:57.211Z,80.48
2019-03-23T03:01:27.541Z,80.12
2019-03-23T03:03:57.554Z,80.09
2019-03-23T03:06:27.617Z,80.12
2019-03-23T03:08:57.638Z,80.12
2019-03-23T03:11:28.006Z,80.35
2019-03-23T03:13:58.047Z,80.23
2019-03-23T03:16:28.078Z,80.07
2019-03-23T03:18:58.148Z,80.50
2019-03-23T03:21:28.196Z,80.74
2019-03-23T03:23:58.251Z,80.70
2019-03-23T03:26:28.273Z,80.53
2019-03-23T03:28:58.413Z,80.31
2019-03-23T03:31:28.440Z,80.45
2019-03-23T03:33:58.782Z,80.65
2019-03-23T03:36:30.220Z,80.85
2019-03-23T03:38:58.856Z,80.47
2019-03-23T03:41:28.884Z,80.44
2019-03-23T03:43:58.911Z,80.12
2019-03-23T03:46:28.968Z,80.38
2019-03-23T03:49:11.755Z,80.63
2019-03-23T03:51:29.301Z,80.55
2019-03-23T03:53:59.322Z,80.46
2019-03-23T03:56:29.356Z,80.60
2019-03-23T03:58:59.396Z,80.72
2019-03-23T04:01:29.409Z,80.96
2019-03-23T04:03:59.454Z,81.44
2019-03-23T04:06:29.513Z,81.12
2019-03-23T04:08:59.801Z,80.81
2019-03-23T04:11:30.131Z,80.78
2019-03-23T04:14:00.157Z,80.96
2019-03-23T04:16:30.266Z,81.02
2019-03-23T04:19:00.596Z,80.80
2019-03-23T04:21:30.906Z,80.82
2019-03-23T04:24:00.954Z,81.33
2019-03-23T04:26:30.959Z,82.14
2019-03-23T04:29:00.979Z,81.93
2019-03-23T04:31:31.021Z,81.64
2019-03-23T04:34:01.075Z,81.35
2019-03-23T04:36:31.405Z,81.12
2019-03-23T04:39:01.429Z,80.98
2019-03-23T04:41:31.477Z,81.28
2019-03-23T04:44:01.500Z,81.00
2019-03-23T04:46:31.541Z,80.72
2019-03-23T04:49:01.571Z,80.57
2019-03-23T04:51:31.653Z,81.00
2019-03-23T04:54:01.705Z,80.81
2019-03-23T04:56:31.736Z,80.56
2019-03-23T04:59:02.003Z,80.79
2019-03-23T05:01:32.085Z,80.72
2019-03-23T05:04:02.109Z,81.52
2019-03-23T05:06:32.545Z,80.84
2019-03-23T05:09:02.551Z,80.84
2019-03-23T05:11:32.599Z,81.00
2019-03-23T05:14:02.890Z,80.82
2019-03-23T05:19:12.285Z,80.90
2019-03-23T05:21:42.301Z,81.05
2019-03-23T05:24:12.327Z,80.97
2019-03-23T05:26:42.366Z,81.22
2019-03-23T05:29:12.389Z,80.93
2019-03-23T05:31:42.433Z,80.89
2019-03-23T05:34:12.482Z,81.03
2019-03-23T05:36:42.531Z,80.65
2019-03-23T05:39:12.553Z,80.43
2019-03-23T05:41:42.614Z,80.49
2019-03-23T05:44:12.636Z,80.68
2019-03-23T05:46:42.671Z,80.46
2019-03-23T05:49:12.981Z,80.93
2019-03-23T05:51:43.031Z,81.16
2019-03-23T05:54:13.022Z,80.84
2019-03-23T05:56:43.365Z,80.35
2019-03-23T05:59:13.384Z,80.94
2019-03-23T06:01:43.418Z,80.67
2019-03-23T06:04:13.463Z,81.65
2019-03-23T06:06:43.474Z,80.76
2019-03-23T06:09:13.854Z,81.22
2019-03-23T06:11:44.174Z,81.55
2019-03-23T06:16:54.167Z,80.57
2019-03-23T06:19:24.463Z,80.68
2019-03-23T06:21:54.525Z,80.78
2019-03-23T06:24:24.555Z,80.73
2019-03-23T06:26:54.917Z,81.06
2019-03-23T06:29:25.250Z,80.58
2019-03-23T06:31:55.303Z,83.26
2019-03-23T06:34:25.578Z,82.48
2019-03-23T06:36:55.628Z,81.24
2019-03-23T06:39:26.018Z,81.28
2019-03-23T06:41:56.456Z,81.24
2019-03-23T06:47:05.865Z,82.12
2019-03-23T06:49:35.886Z,81.01
2019-03-23T06:52:05.936Z,81.22
2019-03-23T06:54:36.000Z,80.54
2019-03-23T06:57:06.032Z,80.13
2019-03-23T06:59:36.395Z,79.59
2019-03-23T07:04:46.200Z,78.99
2019-03-23T07:07:17.083Z,78.64
2019-03-23T07:09:47.118Z,77.97
2019-03-23T07:12:17.157Z,77.82
2019-03-23T07:14:47.234Z,77.31
2019-03-23T07:17:17.262Z,76.85
2019-03-23T07:19:47.305Z,76.69
2019-03-23T07:22:17.389Z,75.74
2019-03-23T07:24:47.430Z,75.49
2019-03-23T07:27:17.481Z,75.55
2019-03-23T07:29:47.514Z,75.32
2019-03-23T07:32:17.554Z,74.96
2019-03-23T07:34:47.594Z,73.86
2019-03-23T07:37:17.628Z,72.97
2019-03-23T07:39:47.667Z,72.28
2019-03-23T07:42:18.051Z,71.66
2019-03-23T07:44:48.332Z,70.89
2019-03-23T07:47:18.359Z,70.17
2019-03-23T07:49:48.413Z,69.62
2019-03-23T07:52:18.440Z,68.87
2019-03-23T07:54:48.850Z,68.39
2019-03-23T07:57:19.244Z,68.02
2019-03-23T07:59:49.277Z,66.95
2019-03-23T08:02:19.681Z,66.91
2019-03-23T08:07:29.433Z,65.24
2019-03-23T08:09:59.461Z,64.62
2019-03-23T08:12:29.520Z,65.44
2019-03-23T08:14:59.550Z,67.05
2019-03-23T08:17:29.582Z,66.84
2019-03-23T08:19:59.637Z,66.37
2019-03-23T08:22:29.939Z,63.77
2019-03-23T08:24:59.998Z,62.16
2019-03-23T08:27:30.037Z,62.01
2019-03-23T08:30:00.416Z,63.11
2019-03-23T08:32:30.459Z,61.43
2019-03-23T08:35:00.840Z,62.18
2019-03-23T08:37:30.977Z,62.38
2019-03-23T08:40:00.908Z,62.08
2019-03-23T08:42:31.282Z,60.85
2019-03-23T08:45:01.343Z,60.47
2019-03-23T08:47:31.378Z,60.28
2019-03-23T08:50:01.429Z,61.43
2019-03-23T08:52:31.863Z,60.15
2019-03-23T08:55:02.186Z,60.50
2019-03-23T08:57:32.219Z,59.14
2019-03-23T09:00:02.255Z,59.02
2019-03-23T09:02:32.286Z,58.23
2019-03-23T09:05:02.338Z,58.02
2019-03-23T09:07:32.405Z,57.92
2019-03-23T09:10:02.807Z,57.58
2019-03-23T09:12:33.122Z,56.46
2019-03-23T09:15:03.179Z,56.07
2019-03-23T09:17:33.217Z,56.42
2019-03-23T09:20:03.254Z,55.56
2019-03-23T09:22:33.306Z,56.22
2019-03-23T09:25:03.705Z,57.56
2019-03-23T09:27:33.728Z,58.94
2019-03-23T09:30:03.779Z,58.12
2019-03-23T09:32:34.166Z,58.40
2019-03-23T09:35:04.221Z,58.10
2019-03-23T09:37:38.272Z,58.29
2019-03-23T09:40:10.836Z,57.96
2019-03-23T09:45:14.353Z,55.64
2019-03-23T09:47:44.082Z,55.10
2019-03-23T09:50:14.161Z,54.35
2019-03-23T09:52:44.539Z,53.18
2019-03-23T09:55:14.970Z,52.29
2019-03-23T09:57:45.007Z,52.65
2019-03-23T10:00:15.086Z,53.36
2019-03-23T10:02:45.135Z,52.09
2019-03-23T10:05:15.191Z,52.51
2019-03-23T10:07:45.240Z,51.97
2019-03-23T10:10:21.734Z,52.19
2019-03-23T10:12:45.918Z,51.02
2019-03-23T10:15:15.986Z,51.90
2019-03-23T10:17:46.025Z,51.60
2019-03-23T10:20:16.100Z,51.60
2019-03-23T10:22:46.168Z,52.00
2019-03-23T10:25:16.228Z,51.62
2019-03-23T10:27:46.276Z,50.70
2019-03-23T10:30:16.616Z,49.33
2019-03-23T10:32:46.663Z,50.48
2019-03-23T10:35:17.065Z,50.11
2019-03-23T10:37:47.134Z,50.00
2019-03-23T10:40:17.498Z,49.22
2019-03-23T10:42:47.571Z,50.73
2019-03-23T10:45:17.608Z,49.97
2019-03-23T10:47:47.741Z,49.35
2019-03-23T10:50:18.088Z,49.35
2019-03-23T10:55:28.533Z,47.68
2019-03-23T10:57:58.570Z,44.92
2019-03-23T11:00:28.626Z,47.23
2019-03-23T11:02:58.989Z,46.61
2019-03-23T11:05:29.037Z,45.80
2019-03-23T11:07:59.457Z,45.85
2019-03-23T11:10:29.886Z,45.88
2019-03-23T11:13:00.063Z,44.73
2019-03-23T11:15:30.307Z,45.25
2019-03-23T11:18:00.358Z,44.46
2019-03-23T11:20:30.421Z,44.52
2019-03-23T11:23:00.801Z,45.02
2019-03-23T11:25:30.865Z,44.98
2019-03-23T11:28:01.161Z,44.93
2019-03-23T11:30:31.224Z,42.91
2019-03-23T11:33:01.534Z,44.26
2019-03-23T11:35:31.578Z,43.71
2019-03-23T11:40:41.113Z,43.12
2019-03-23T11:43:11.441Z,43.54
2019-03-23T11:45:42.328Z,43.41
2019-03-23T11:48:12.276Z,43.00
2019-03-23T11:50:42.329Z,42.27
2019-03-23T11:53:12.748Z,42.66
2019-03-23T11:55:42.792Z,42.80
2019-03-23T11:58:13.185Z,42.53
2019-03-23T12:00:43.231Z,41.96
2019-03-23T12:03:13.287Z,42.14
2019-03-23T12:05:43.336Z,40.87
2019-03-23T12:08:13.383Z,42.31
2019-03-23T12:10:43.456Z,40.37
2019-03-23T12:13:13.502Z,40.65
2019-03-23T12:15:43.886Z,40.63
2019-03-23T12:18:14.201Z,40.67
2019-03-23T12:20:44.532Z,40.37
2019-03-23T12:23:14.997Z,39.86
2019-03-23T12:25:45.389Z,38.99
2019-03-23T12:28:15.454Z,39.99
2019-03-23T12:30:45.488Z,38.79
2019-03-23T12:33:15.554Z,37.64
2019-03-23T12:35:45.573Z,37.89
2019-03-23T12:40:55.016Z,37.93
2019-03-23T12:43:25.058Z,38.83
2019-03-23T12:48:34.488Z,40.17
2019-03-23T12:51:04.538Z,40.77
2019-03-23T12:53:34.596Z,38.63
2019-03-23T12:58:44.367Z,38.24
2019-03-23T13:01:14.690Z,39.64
2019-03-23T13:03:44.755Z,39.34
2019-03-23T13:06:14.805Z,40.17
2019-03-23T13:08:45.147Z,39.34
2019-03-23T13:11:23.098Z,39.58
2019-03-23T13:13:45.644Z,40.19
2019-03-23T13:16:16.005Z,38.90
2019-03-23T13:18:46.090Z,39.36
2019-03-23T13:21:16.491Z,39.48
2019-03-23T13:23:46.564Z,40.03
2019-03-23T13:26:16.603Z,39.93
2019-03-23T13:28:46.671Z,39.99
2019-03-23T13:31:16.727Z,38.51
2019-03-23T13:33:46.794Z,38.32
2019-03-23T13:36:17.155Z,39.43
2019-03-23T13:38:47.195Z,40.19
2019-03-23T13:41:17.242Z,39.65
2019-03-23T13:43:47.468Z,40.61
2019-03-23T13:46:17.513Z,40.03
2019-03-23T13:48:47.587Z,39.94
2019-03-23T13:51:17.661Z,40.51
2019-03-23T13:53:47.714Z,39.26
2019-03-23T13:56:18.205Z,40.23
2019-03-23T13:58:48.148Z,39.16
2019-03-23T14:01:18.224Z,39.56
2019-03-23T14:03:48.275Z,38.55
2019-03-23T14:06:18.323Z,38.76
2019-03-23T14:08:48.382Z,38.59
2019-03-23T14:11:18.717Z,40.62
2019-03-23T14:13:48.776Z,39.78
2019-03-23T14:16:18.836Z,40.12
2019-03-23T14:18:49.175Z,39.63
2019-03-23T14:21:19.586Z,39.27
2019-03-23T14:23:49.629Z,38.61
2019-03-23T14:26:19.694Z,39.45
2019-03-23T14:28:49.745Z,39.74
2019-03-23T14:31:19.791Z,41.45
2019-03-23T14:33:49.844Z,42.01
2019-03-23T14:36:19.898Z,41.77
2019-03-23T14:38:49.924Z,40.92
2019-03-23T14:41:19.987Z,42.28
2019-03-23T14:43:50.291Z,42.96
2019-03-23T14:46:20.345Z,41.65
2019-03-23T14:48:50.702Z,42.44
2019-03-23T14:51:21.018Z,41.31
2019-03-23T14:53:51.326Z,41.37
2019-03-23T14:56:21.374Z,39.69
2019-03-23T14:58:51.431Z,40.43
2019-03-23T15:01:21.478Z,41.46
2019-03-23T15:03:51.519Z,41.22
2019-03-23T15:06:21.584Z,42.24
2019-03-23T15:08:51.626Z,42.31
2019-03-23T15:11:21.695Z,44.12
2019-03-23T15:13:51.735Z,48.81
2019-03-23T15:16:22.117Z,49.97
2019-03-23T15:18:52.515Z,50.82
2019-03-23T15:21:22.595Z,50.64
2019-03-23T15:23:52.945Z,51.98
2019-03-23T15:26:23.281Z,52.03
2019-03-23T15:28:53.322Z,52.97
2019-03-23T15:31:23.744Z,53.05
2019-03-23T15:33:54.037Z,54.54
2019-03-23T15:36:24.095Z,54.76
2019-03-23T15:38:54.485Z,54.81
2019-03-23T15:44:04.463Z,54.63
2019-03-23T15:49:14.250Z,53.31
2019-03-23T15:51:44.623Z,54.40
2019-03-23T15:54:14.710Z,55.42
2019-03-23T15:59:24.142Z,56.13
2019-03-23T16:01:54.521Z,56.10
2019-03-23T16:04:24.578Z,57.05
2019-03-23T16:06:56.754Z,56.92
2019-03-23T16:09:24.981Z,56.89
2019-03-23T16:11:55.034Z,57.34
2019-03-23T16:14:25.072Z,57.95
2019-03-23T16:16:55.130Z,58.02
2019-03-23T16:19:25.213Z,57.81
2019-03-23T16:21:55.237Z,57.50
2019-03-23T16:24:25.305Z,57.99
2019-03-23T16:26:55.352Z,58.12
2019-03-23T16:29:25.401Z,58.25
2019-03-23T16:31:55.442Z,58.37
2019-03-23T16:34:25.751Z,58.52
2019-03-23T16:36:55.814Z,59.18
2019-03-23T16:39:25.839Z,59.41
2019-03-23T16:41:55.902Z,60.81
2019-03-23T16:44:25.942Z,61.60
2019-03-23T16:46:56.011Z,62.30
2019-03-23T16:49:26.101Z,61.13
2019-03-23T16:51:56.198Z,60.69
2019-03-23T16:54:26.209Z,60.79
2019-03-23T16:56:56.636Z,62.22
2019-03-23T16:59:26.704Z,59.93
2019-03-23T17:01:57.007Z,59.62
2019-03-23T17:07:07.116Z,60.85
2019-03-23T17:09:37.149Z,61.03
2019-03-23T17:12:07.234Z,60.60
2019-03-23T17:14:37.261Z,60.57
2019-03-23T17:17:07.288Z,60.89
2019-03-23T17:22:17.464Z,62.36
2019-03-23T17:24:47.491Z,61.06
2019-03-23T17:27:17.550Z,62.10
2019-03-23T17:29:47.913Z,61.98
2019-03-23T17:32:17.947Z,61.69
2019-03-23T17:34:48.004Z,62.16
2019-03-23T17:37:18.370Z,62.82
2019-03-23T17:39:48.417Z,62.02
2019-03-23T17:42:18.457Z,62.40
2019-03-23T17:47:27.864Z,62.53
2019-03-23T17:49:57.909Z,62.75
2019-03-23T17:52:27.942Z,63.32
2019-03-23T17:57:37.364Z,64.06
2019-03-23T18:02:46.506Z,64.91
2019-03-23T18:05:16.553Z,65.09
2019-03-23T18:07:46.588Z,64.81
2019-03-23T18:10:16.643Z,65.64
2019-03-23T18:12:46.944Z,66.06
2019-03-23T18:15:17.294Z,65.78
2019-03-23T18:17:47.688Z,66.13
2019-03-23T18:20:17.740Z,65.83
2019-03-23T18:22:47.774Z,65.52
2019-03-23T18:25:17.819Z,65.53
2019-03-23T18:27:47.866Z,65.57
2019-03-23T18:30:42.234Z,66.03
2019-03-23T18:33:12.273Z,66.53
2019-03-23T18:35:42.676Z,66.66
2019-03-23T18:38:12.999Z,67.01
2019-03-23T18:40:43.060Z,66.63
2019-03-23T18:43:13.094Z,67.09
2019-03-23T18:48:22.560Z,66.60
2019-03-23T18:50:52.644Z,66.96
2019-03-23T18:53:24.049Z,66.89
2019-03-23T18:55:52.757Z,67.65
2019-03-23T18:58:22.782Z,67.92
2019-03-23T19:00:52.872Z,67.72
2019-03-23T19:03:23.210Z,67.85
2019-03-23T19:05:53.253Z,68.37
2019-03-23T19:08:23.288Z,68.37
2019-03-23T19:10:53.645Z,67.74
2019-03-23T19:13:23.690Z,67.27
2019-03-23T19:15:53.730Z,67.84
2019-03-23T19:18:23.757Z,68.37
2019-03-23T19:20:54.039Z,68.86
2019-03-23T19:23:24.068Z,68.86
2019-03-23T19:25:54.124Z,68.82
2019-03-23T19:28:24.155Z,69.26
2019-03-23T19:30:54.203Z,69.16
2019-03-23T19:33:24.514Z,68.90
2019-03-23T19:38:34.473Z,69.03
2019-03-23T19:41:05.670Z,69.31
2019-03-23T19:46:14.180Z,69.50
2019-03-23T19:48:44.567Z,70.02
2019-03-23T19:51:14.626Z,70.17
2019-03-23T19:53:44.661Z,69.98
2019-03-23T19:56:14.692Z,69.78
2019-03-23T19:58:44.743Z,69.67
2019-03-23T20:01:14.820Z,69.95
2019-03-23T20:03:44.833Z,70.00
2019-03-23T20:06:15.230Z,69.93
2019-03-23T20:08:45.632Z,69.66
2019-03-23T20:11:15.696Z,70.12
2019-03-23T20:13:46.148Z,70.28
2019-03-23T20:16:16.211Z,70.19
2019-03-23T20:18:46.584Z,70.23
2019-03-23T20:21:16.621Z,70.04
2019-03-23T20:23:46.666Z,70.27
2019-03-23T20:26:16.720Z,70.32
2019-03-23T20:31:26.400Z,70.51
2019-03-23T20:33:56.733Z,70.81
2019-03-23T20:36:26.782Z,70.67
2019-03-23T20:38:56.818Z,71.15
2019-03-23T20:41:26.882Z,70.23
2019-03-23T20:43:57.212Z,70.28
2019-03-23T20:46:27.248Z,70.49
2019-03-23T20:48:57.295Z,71.24
2019-03-23T20:51:27.343Z,70.93
2019-03-23T20:53:57.377Z,70.79
2019-03-23T20:56:27.445Z,71.02
2019-03-23T20:58:57.733Z,71.13
2019-03-23T21:01:27.808Z,71.70
2019-03-23T21:03:57.830Z,71.54
2019-03-23T21:06:27.900Z,71.35
2019-03-23T21:08:57.924Z,71.05
2019-03-23T21:11:27.969Z,71.38
2019-03-23T21:13:58.019Z,71.25
2019-03-23T21:16:28.055Z,71.25
2019-03-23T21:18:58.092Z,71.14
2019-03-23T21:21:28.461Z,71.07
2019-03-23T21:23:58.504Z,71.47
2019-03-23T21:26:28.580Z,71.68
2019-03-23T21:28:58.616Z,71.93
2019-03-23T21:31:28.666Z,71.66
2019-03-23T21:33:58.703Z,72.12
2019-03-23T21:36:28.810Z,71.75
2019-03-23T21:38:59.175Z,71.63
2019-03-23T21:41:29.234Z,72.00
2019-03-23T21:46:39.267Z,72.86
2019-03-23T21:49:09.296Z,72.48
2019-03-23T21:51:39.348Z,72.54
2019-03-23T21:54:09.397Z,72.66
2019-03-23T21:56:39.738Z,73.01
2019-03-23T21:59:09.773Z,73.10
2019-03-23T22:01:39.855Z,73.47
2019-03-23T22:04:11.358Z,73.43
2019-03-23T22:06:39.936Z,73.30
2019-03-23T22:09:10.326Z,73.32
2019-03-23T22:11:40.373Z,73.30
2019-03-23T22:14:10.780Z,73.14
2019-03-23T22:16:41.202Z,73.48
2019-03-23T22:19:11.610Z,73.37
2019-03-23T22:21:41.667Z,73.55
2019-03-23T22:24:12.081Z,73.57
2019-03-23T22:26:42.084Z,73.75
2019-03-23T22:29:12.135Z,74.08
2019-03-23T22:31:42.171Z,74.25
2019-03-23T22:34:12.241Z,73.92
2019-03-23T22:36:42.289Z,74.35
2019-03-23T22:39:12.343Z,74.33
2019-03-23T22:41:42.368Z,74.46
2019-03-23T22:44:12.418Z,74.66
2019-03-23T22:46:42.453Z,74.93
2019-03-23T22:49:12.809Z,74.79
2019-03-23T22:51:42.850Z,74.35
2019-03-23T22:54:12.897Z,74.07
2019-03-23T22:59:22.307Z,74.79
2019-03-23T23:01:52.345Z,75.11
2019-03-23T23:04:22.399Z,75.34
2019-03-23T23:06:52.426Z,75.38
2019-03-23T23:09:22.483Z,75.48
2019-03-23T23:11:52.787Z,75.40
2019-03-23T23:14:22.835Z,74.93
2019-03-23T23:16:52.865Z,75.05
2019-03-23T23:19:22.924Z,75.30
2019-03-23T23:21:52.975Z,75.50
2019-03-23T23:24:23.044Z,75.31
2019-03-23T23:26:53.386Z,75.13
2019-03-23T23:29:23.441Z,75.23
2019-03-23T23:31:53.828Z,75.19
2019-03-23T23:34:23.877Z,75.34
2019-03-23T23:36:53.911Z,75.96
2019-03-23T23:39:23.995Z,75.61
2019-03-23T23:41:54.025Z,75.83
2019-03-23T23:44:24.429Z,75.74
2019-03-23T23:46:54.496Z,75.80
2019-03-23T23:49:24.545Z,75.81
2019-03-23T23:51:54.588Z,75.74
2019-03-23T23:54:24.629Z,75.99
2019-03-23T23:56:55.009Z,75.92
2019-03-23T23:59:25.066Z,75.75
